sensor_id;sensor_type;location;lat;lon;timestamp;noise_LAeq;noise_LA_min;noise_LA_max;noise_LA01;noise_LA95
67310;Laerm;65444;51.438;5.982;2023-06-26T00:00:10;37.53;30.39;47.45;;
67310;Laerm;65444;51.438;5.982;2023-06-26T00:00:21;31.56;29.77;33.95;;
67310;Laerm;65444;51.438;5.982;2023-06-26T00:01:25;34.36;29.74;45.37;;
67310;Laerm;65444;51.438;5.982;2023-06-26T00:01:40;33.70;29.77;42.83;;
67310;Laerm;65444;51.438;5.982;2023-06-26T00:03:25;38.74;30.09;63.25;;
67310;Laerm;65444;51.438;5.982;2023-06-26T00:03:36;32.49;30.89;42.06;;
67310;Laerm;65444;51.438;5.982;2023-06-26T00:04:28;33.09;29.77;47.18;;
67310;Laerm;65444;51.438;5.982;2023-06-26T00:04:38;31.57;29.59;34.01;;
67310;Laerm;65444;51.438;5.982;2023-06-26T00:04:49;31.54;29.76;33.43;;
67310;Laerm;65444;51.438;5.982;2023-06-26T00:05:22;35.36;30.33;44.65;;
67310;Laerm;65444;51.438;5.982;2023-06-26T00:05:39;33.70;29.89;43.82;;
67310;Laerm;65444;51.438;5.982;2023-06-26T00:05:49;31.95;29.96;41.23;;
67310;Laerm;65444;51.438;5.982;2023-06-26T00:06:09;32.78;30.02;41.22;;
67310;Laerm;65444;51.438;5.982;2023-06-26T00:06:19;31.79;29.87;39.25;;
67310;Laerm;65444;51.438;5.982;2023-06-26T00:06:33;35.82;30.46;44.04;;
67310;Laerm;65444;51.438;5.982;2023-06-26T00:06:43;34.84;29.63;45.37;;
67310;Laerm;65444;51.438;5.982;2023-06-26T00:07:07;32.71;29.32;48.16;;
67310;Laerm;65444;51.438;5.982;2023-06-26T00:07:17;33.53;29.61;49.65;;
67310;Laerm;65444;51.438;5.982;2023-06-26T00:07:29;32.93;30.55;36.96;;
67310;Laerm;65444;51.438;5.982;2023-06-26T00:07:40;31.97;30.34;35.48;;
67310;Laerm;65444;51.438;5.982;2023-06-26T00:07:52;33.24;30.47;40.09;;
67310;Laerm;65444;51.438;5.982;2023-06-26T00:08:02;34.64;30.92;44.01;;
67310;Laerm;65444;51.438;5.982;2023-06-26T00:08:14;32.78;29.88;36.81;;
67310;Laerm;65444;51.438;5.982;2023-06-26T00:08:25;31.88;29.96;35.69;;
67310;Laerm;65444;51.438;5.982;2023-06-26T00:08:36;34.65;30.15;43.21;;
67310;Laerm;65444;51.438;5.982;2023-06-26T00:08:49;31.29;29.54;33.69;;
67310;Laerm;65444;51.438;5.982;2023-06-26T00:09:00;31.27;29.46;32.95;;
67310;Laerm;65444;51.438;5.982;2023-06-26T00:09:11;31.15;29.60;32.70;;
67310;Laerm;65444;51.438;5.982;2023-06-26T00:09:25;31.98;29.79;37.79;;
67310;Laerm;65444;51.438;5.982;2023-06-26T00:09:36;31.58;29.50;38.14;;
67310;Laerm;65444;51.438;5.982;2023-06-26T00:10:28;33.82;29.24;46.22;;
67310;Laerm;65444;51.438;5.982;2023-06-26T00:10:38;31.06;29.64;32.65;;
67310;Laerm;65444;51.438;5.982;2023-06-26T00:10:49;31.05;29.42;34.00;;
67310;Laerm;65444;51.438;5.982;2023-06-26T00:11:13;31.60;29.91;34.81;;
67310;Laerm;65444;51.438;5.982;2023-06-26T00:11:23;32.16;29.61;38.67;;
67310;Laerm;65444;51.438;5.982;2023-06-26T00:11:34;34.00;30.20;42.28;;
67310;Laerm;65444;51.438;5.982;2023-06-26T00:11:45;36.90;30.14;44.06;;
67310;Laerm;65444;51.438;5.982;2023-06-26T00:25:29;35.16;30.00;44.39;;
67310;Laerm;65444;51.438;5.982;2023-06-26T00:25:51;31.93;30.32;33.71;;
67310;Laerm;65444;51.438;5.982;2023-06-26T00:26:02;32.15;30.30;36.80;;
67310;Laerm;65444;51.438;5.982;2023-06-26T00:26:14;31.86;30.13;33.12;;
67310;Laerm;65444;51.438;5.982;2023-06-26T00:26:37;32.38;30.59;34.09;;
67310;Laerm;65444;51.438;5.982;2023-06-26T00:26:48;36.22;30.16;44.92;;
67310;Laerm;65444;51.438;5.982;2023-06-26T00:26:59;33.06;30.92;38.69;;
67310;Laerm;65444;51.438;5.982;2023-06-26T00:27:42;32.14;29.95;38.04;;
67310;Laerm;65444;51.438;5.982;2023-06-26T00:27:52;35.28;30.72;41.70;;
67310;Laerm;65444;51.438;5.982;2023-06-26T00:28:05;32.48;30.21;37.65;;
67310;Laerm;65444;51.438;5.982;2023-06-26T00:28:16;32.29;30.27;38.30;;
67310;Laerm;65444;51.438;5.982;2023-06-26T00:28:26;31.88;30.23;36.80;;
67310;Laerm;65444;51.438;5.982;2023-06-26T00:29:26;33.44;29.83;41.57;;
67310;Laerm;65444;51.438;5.982;2023-06-26T00:29:36;33.29;29.93;38.83;;
67310;Laerm;65444;51.438;5.982;2023-06-26T00:29:51;33.55;31.04;37.51;;
67310;Laerm;65444;51.438;5.982;2023-06-26T00:30:03;34.55;30.91;40.08;;
67310;Laerm;65444;51.438;5.982;2023-06-26T00:30:13;31.98;30.41;34.75;;
67310;Laerm;65444;51.438;5.982;2023-06-26T00:30:37;32.31;30.62;34.51;;
67310;Laerm;65444;51.438;5.982;2023-06-26T00:30:48;34.29;30.47;44.90;;
67310;Laerm;65444;51.438;5.982;2023-06-26T00:30:58;34.60;30.82;39.85;;
67310;Laerm;65444;51.438;5.982;2023-06-26T00:31:16;37.40;30.80;46.95;;
67310;Laerm;65444;51.438;5.982;2023-06-26T00:31:26;32.02;29.87;35.31;;
67310;Laerm;65444;51.438;5.982;2023-06-26T00:31:37;33.18;30.35;39.05;;
67310;Laerm;65444;51.438;5.982;2023-06-26T00:31:51;32.05;30.27;37.15;;
67310;Laerm;65444;51.438;5.982;2023-06-26T00:32:02;32.11;30.40;35.18;;
67310;Laerm;65444;51.438;5.982;2023-06-26T00:32:12;32.94;29.85;37.71;;
67310;Laerm;65444;51.438;5.982;2023-06-26T00:32:25;33.31;30.65;38.16;;
67310;Laerm;65444;51.438;5.982;2023-06-26T00:32:36;32.16;30.38;37.68;;
67310;Laerm;65444;51.438;5.982;2023-06-26T00:32:47;31.72;30.43;38.07;;
67310;Laerm;65444;51.438;5.982;2023-06-26T00:33:13;31.36;29.84;32.72;;
67310;Laerm;65444;51.438;5.982;2023-06-26T00:33:24;31.79;29.60;39.18;;
67310;Laerm;65444;51.438;5.982;2023-06-26T00:33:34;33.72;30.45;43.17;;
67310;Laerm;65444;51.438;5.982;2023-06-26T00:33:46;32.32;30.27;38.74;;
67310;Laerm;65444;51.438;5.982;2023-06-26T00:33:57;36.14;30.53;42.47;;
67310;Laerm;65444;51.438;5.982;2023-06-26T00:34:07;36.53;30.35;44.66;;
67310;Laerm;65444;51.438;5.982;2023-06-26T00:34:29;31.60;29.94;33.49;;
67310;Laerm;65444;51.438;5.982;2023-06-26T00:34:39;36.18;30.01;61.65;;
67310;Laerm;65444;51.438;5.982;2023-06-26T00:34:50;34.42;30.64;39.96;;
67310;Laerm;65444;51.438;5.982;2023-06-26T00:35:00;36.05;30.46;41.71;;
67310;Laerm;65444;51.438;5.982;2023-06-26T00:35:28;35.20;30.91;40.11;;
67310;Laerm;65444;51.438;5.982;2023-06-26T00:35:39;31.64;29.69;42.05;;
67310;Laerm;65444;51.438;5.982;2023-06-26T00:35:49;31.77;30.45;33.20;;
67310;Laerm;65444;51.438;5.982;2023-06-26T00:36:00;31.61;30.03;35.84;;
67310;Laerm;65444;51.438;5.982;2023-06-26T00:36:10;32.00;30.33;38.24;;
67310;Laerm;65444;51.438;5.982;2023-06-26T00:36:21;33.02;30.68;38.24;;
67310;Laerm;65444;51.438;5.982;2023-06-26T00:36:33;36.52;30.05;46.59;;
67310;Laerm;65444;51.438;5.982;2023-06-26T00:36:50;34.73;30.84;40.65;;
67310;Laerm;65444;51.438;5.982;2023-06-26T00:37:01;33.41;30.17;43.60;;
67310;Laerm;65444;51.438;5.982;2023-06-26T00:37:12;32.48;30.59;43.84;;
67310;Laerm;65444;51.438;5.982;2023-06-26T00:37:22;31.97;30.18;33.50;;
67310;Laerm;65444;51.438;5.982;2023-06-26T00:38:07;34.24;31.21;40.05;;
67310;Laerm;65444;51.438;5.982;2023-06-26T00:38:18;34.63;31.58;37.79;;
67310;Laerm;65444;51.438;5.982;2023-06-26T00:38:28;33.64;30.82;39.02;;
67310;Laerm;65444;51.438;5.982;2023-06-26T00:38:39;36.04;31.23;42.33;;
67310;Laerm;65444;51.438;5.982;2023-06-26T00:38:50;34.11;30.59;48.46;;
67310;Laerm;65444;51.438;5.982;2023-06-26T00:39:01;35.51;31.05;49.48;;
67310;Laerm;65444;51.438;5.982;2023-06-26T00:39:11;34.89;31.28;42.64;;
67310;Laerm;65444;51.438;5.982;2023-06-26T00:39:22;34.21;30.58;41.65;;
67310;Laerm;65444;51.438;5.982;2023-06-26T00:39:35;33.41;30.31;47.97;;
67310;Laerm;65444;51.438;5.982;2023-06-26T00:39:46;32.62;30.80;34.32;;
67310;Laerm;65444;51.438;5.982;2023-06-26T00:39:56;33.17;31.18;36.86;;
67310;Laerm;65444;51.438;5.982;2023-06-26T00:40:07;34.42;31.32;39.38;;
67310;Laerm;65444;51.438;5.982;2023-06-26T00:40:18;35.49;30.67;43.59;;
67310;Laerm;65444;51.438;5.982;2023-06-26T00:40:29;32.38;30.80;34.04;;
67310;Laerm;65444;51.438;5.982;2023-06-26T00:40:40;32.59;31.13;34.29;;
67310;Laerm;65444;51.438;5.982;2023-06-26T00:41:22;32.50;30.53;37.98;;
67310;Laerm;65444;51.438;5.982;2023-06-26T00:41:33;32.40;30.61;34.78;;
67310;Laerm;65444;51.438;5.982;2023-06-26T00:41:43;33.11;31.15;35.04;;
67310;Laerm;65444;51.438;5.982;2023-06-26T00:41:54;32.14;30.54;33.80;;
67310;Laerm;65444;51.438;5.982;2023-06-26T00:42:05;32.48;30.73;33.99;;
67310;Laerm;65444;51.438;5.982;2023-06-26T00:42:15;33.14;30.68;35.59;;
67310;Laerm;65444;51.438;5.982;2023-06-26T00:42:26;32.06;30.77;33.40;;
67310;Laerm;65444;51.438;5.982;2023-06-26T00:42:36;31.95;30.14;33.22;;
67310;Laerm;65444;51.438;5.982;2023-06-26T00:42:47;32.64;30.48;34.08;;
67310;Laerm;65444;51.438;5.982;2023-06-26T00:42:59;32.74;31.01;34.34;;
67310;Laerm;65444;51.438;5.982;2023-06-26T00:43:09;34.01;31.14;38.69;;
67310;Laerm;65444;51.438;5.982;2023-06-26T00:43:20;33.81;30.70;41.67;;
67310;Laerm;65444;51.438;5.982;2023-06-26T00:43:30;36.36;30.99;43.97;;
67310;Laerm;65444;51.438;5.982;2023-06-26T00:43:41;32.71;30.65;35.07;;
67310;Laerm;65444;51.438;5.982;2023-06-26T00:43:58;33.06;30.57;35.34;;
67310;Laerm;65444;51.438;5.982;2023-06-26T00:44:08;33.00;31.13;38.36;;
67310;Laerm;65444;51.438;5.982;2023-06-26T00:44:18;33.35;30.94;40.61;;
67310;Laerm;65444;51.438;5.982;2023-06-26T00:44:29;35.89;31.19;43.05;;
67310;Laerm;65444;51.438;5.982;2023-06-26T00:44:39;34.61;31.45;41.42;;
67310;Laerm;65444;51.438;5.982;2023-06-26T00:46:35;35.92;31.39;43.20;;
67310;Laerm;65444;51.438;5.982;2023-06-26T00:46:45;35.49;32.50;40.86;;
67310;Laerm;65444;51.438;5.982;2023-06-26T00:48:42;34.76;31.37;42.05;;
67310;Laerm;65444;51.438;5.982;2023-06-26T00:48:53;36.20;32.03;40.59;;
67310;Laerm;65444;51.438;5.982;2023-06-26T00:49:33;35.54;31.64;41.47;;
67310;Laerm;65444;51.438;5.982;2023-06-26T00:49:43;37.32;31.51;44.36;;
67310;Laerm;65444;51.438;5.982;2023-06-26T00:49:54;33.35;30.80;35.60;;
67310;Laerm;65444;51.438;5.982;2023-06-26T00:50:06;35.47;32.72;40.53;;
67310;Laerm;65444;51.438;5.982;2023-06-26T00:50:33;34.27;32.10;36.79;;
67310;Laerm;65444;51.438;5.982;2023-06-26T00:50:44;34.96;31.99;40.08;;
67310;Laerm;65444;51.438;5.982;2023-06-26T00:50:54;33.42;31.05;36.74;;
67310;Laerm;65444;51.438;5.982;2023-06-26T00:51:05;33.46;31.49;35.55;;
67310;Laerm;65444;51.438;5.982;2023-06-26T00:51:16;33.80;32.02;36.38;;
67310;Laerm;65444;51.438;5.982;2023-06-26T00:51:27;33.70;31.25;35.66;;
67310;Laerm;65444;51.438;5.982;2023-06-26T00:51:39;33.24;31.30;35.26;;
67310;Laerm;65444;51.438;5.982;2023-06-26T00:51:50;34.60;31.94;42.10;;
67310;Laerm;65444;51.438;5.982;2023-06-26T00:52:01;36.21;32.01;43.10;;
67310;Laerm;65444;51.438;5.982;2023-06-26T00:52:14;33.68;31.80;35.58;;
67310;Laerm;65444;51.438;5.982;2023-06-26T00:52:27;34.24;31.43;40.39;;
67310;Laerm;65444;51.438;5.982;2023-06-26T00:52:37;36.37;32.02;41.70;;
67310;Laerm;65444;51.438;5.982;2023-06-26T00:52:48;33.14;31.57;34.85;;
67310;Laerm;65444;51.438;5.982;2023-06-26T00:52:59;34.11;32.06;36.35;;
67310;Laerm;65444;51.438;5.982;2023-06-26T00:53:11;33.31;31.09;35.71;;
67310;Laerm;65444;51.438;5.982;2023-06-26T00:53:28;33.33;30.92;35.94;;
67310;Laerm;65444;51.438;5.982;2023-06-26T00:53:39;32.84;31.04;35.46;;
67310;Laerm;65444;51.438;5.982;2023-06-26T00:53:50;33.06;31.20;35.32;;
67310;Laerm;65444;51.438;5.982;2023-06-26T00:54:01;34.87;31.47;41.78;;
67310;Laerm;65444;51.438;5.982;2023-06-26T00:54:12;35.49;31.09;41.53;;
67310;Laerm;65444;51.438;5.982;2023-06-26T00:54:22;36.15;31.70;40.37;;
67310;Laerm;65444;51.438;5.982;2023-06-26T00:54:33;33.36;30.66;38.39;;
67310;Laerm;65444;51.438;5.982;2023-06-26T00:54:43;32.95;30.70;35.12;;
67310;Laerm;65444;51.438;5.982;2023-06-26T00:55:13;32.68;30.97;34.12;;
67310;Laerm;65444;51.438;5.982;2023-06-26T00:55:27;33.23;31.20;37.37;;
67310;Laerm;65444;51.438;5.982;2023-06-26T00:55:37;35.71;31.59;41.78;;
67310;Laerm;65444;51.438;5.982;2023-06-26T00:56:06;36.38;31.59;43.05;;
67310;Laerm;65444;51.438;5.982;2023-06-26T00:56:17;35.36;31.22;41.51;;
67310;Laerm;65444;51.438;5.982;2023-06-26T00:56:28;32.60;30.66;36.01;;
67310;Laerm;65444;51.438;5.982;2023-06-26T00:56:39;32.82;30.80;40.66;;
67310;Laerm;65444;51.438;5.982;2023-06-26T00:56:50;32.76;30.55;34.61;;
67310;Laerm;65444;51.438;5.982;2023-06-26T00:57:00;35.45;31.17;50.28;;
67310;Laerm;65444;51.438;5.982;2023-06-26T00:57:11;33.49;31.74;35.17;;
67310;Laerm;65444;51.438;5.982;2023-06-26T00:57:21;32.73;30.50;35.96;;
67310;Laerm;65444;51.438;5.982;2023-06-26T00:57:32;33.07;30.89;41.94;;
67310;Laerm;65444;51.438;5.982;2023-06-26T00:57:42;33.77;31.25;43.12;;
67310;Laerm;65444;51.438;5.982;2023-06-26T00:57:55;35.11;31.24;45.53;;
67310;Laerm;65444;51.438;5.982;2023-06-26T00:58:06;36.94;31.49;46.92;;
67310;Laerm;65444;51.438;5.982;2023-06-26T00:58:16;37.03;31.58;46.32;;
67310;Laerm;65444;51.438;5.982;2023-06-26T00:58:27;33.69;31.56;38.23;;
67310;Laerm;65444;51.438;5.982;2023-06-26T00:58:37;32.76;31.12;37.34;;
67310;Laerm;65444;51.438;5.982;2023-06-26T00:58:48;33.56;31.11;43.17;;
67310;Laerm;65444;51.438;5.982;2023-06-26T00:58:58;33.08;30.94;40.92;;
67310;Laerm;65444;51.438;5.982;2023-06-26T00:59:09;36.79;32.16;53.65;;
67310;Laerm;65444;51.438;5.982;2023-06-26T00:59:19;35.88;32.25;44.89;;
67310;Laerm;65444;51.438;5.982;2023-06-26T00:59:29;35.63;32.66;41.30;;
67310;Laerm;65444;51.438;5.982;2023-06-26T00:59:40;35.53;31.17;47.39;;
67310;Laerm;65444;51.438;5.982;2023-06-26T00:59:50;34.00;31.69;36.31;;
67310;Laerm;65444;51.438;5.982;2023-06-26T01:00:01;33.86;31.89;39.70;;
67310;Laerm;65444;51.438;5.982;2023-06-26T01:00:14;39.59;31.91;47.89;;
67310;Laerm;65444;51.438;5.982;2023-06-26T01:00:24;35.58;31.80;47.26;;
67310;Laerm;65444;51.438;5.982;2023-06-26T01:00:35;37.38;33.06;52.98;;
67310;Laerm;65444;51.438;5.982;2023-06-26T01:00:45;35.28;32.42;44.47;;
67310;Laerm;65444;51.438;5.982;2023-06-26T01:00:56;35.06;31.94;45.84;;
67310;Laerm;65444;51.438;5.982;2023-06-26T01:01:07;33.39;31.33;38.44;;
67310;Laerm;65444;51.438;5.982;2023-06-26T01:01:18;33.83;31.81;35.42;;
67310;Laerm;65444;51.438;5.982;2023-06-26T01:01:31;34.85;31.82;45.49;;
67310;Laerm;65444;51.438;5.982;2023-06-26T01:01:42;33.18;30.72;37.84;;
67310;Laerm;65444;51.438;5.982;2023-06-26T01:01:52;33.47;30.73;42.74;;
67310;Laerm;65444;51.438;5.982;2023-06-26T01:02:03;33.21;31.32;38.26;;
67310;Laerm;65444;51.438;5.982;2023-06-26T01:02:15;33.06;30.82;35.01;;
67310;Laerm;65444;51.438;5.982;2023-06-26T01:02:28;33.22;31.18;40.83;;
67310;Laerm;65444;51.438;5.982;2023-06-26T01:02:43;33.60;31.06;40.34;;
67310;Laerm;65444;51.438;5.982;2023-06-26T01:02:54;32.67;31.04;36.50;;
67310;Laerm;65444;51.438;5.982;2023-06-26T01:03:09;33.38;31.24;38.87;;
67310;Laerm;65444;51.438;5.982;2023-06-26T01:03:20;34.34;31.89;43.52;;
67310;Laerm;65444;51.438;5.982;2023-06-26T01:03:31;33.30;31.46;35.08;;
67310;Laerm;65444;51.438;5.982;2023-06-26T01:03:41;33.59;31.76;35.64;;
67310;Laerm;65444;51.438;5.982;2023-06-26T01:03:52;34.60;31.32;47.48;;
67310;Laerm;65444;51.438;5.982;2023-06-26T01:04:03;33.14;31.50;38.98;;
67310;Laerm;65444;51.438;5.982;2023-06-26T01:04:15;33.36;30.69;44.15;;
67310;Laerm;65444;51.438;5.982;2023-06-26T01:05:16;34.14;31.38;44.43;;
67310;Laerm;65444;51.438;5.982;2023-06-26T01:05:31;35.13;31.35;41.43;;
67310;Laerm;65444;51.438;5.982;2023-06-26T01:05:42;37.29;31.44;50.22;;
67310;Laerm;65444;51.438;5.982;2023-06-26T01:05:56;32.66;31.11;36.23;;
67310;Laerm;65444;51.438;5.982;2023-06-26T01:06:07;32.76;30.76;38.18;;
67310;Laerm;65444;51.438;5.982;2023-06-26T01:06:23;34.26;31.21;49.65;;
67310;Laerm;65444;51.438;5.982;2023-06-26T01:06:34;40.35;31.60;60.05;;
67310;Laerm;65444;51.438;5.982;2023-06-26T01:06:47;35.86;31.27;54.49;;
67310;Laerm;65444;51.438;5.982;2023-06-26T01:06:59;33.66;30.99;42.33;;
67310;Laerm;65444;51.438;5.982;2023-06-26T01:07:10;48.57;31.91;67.19;;
67310;Laerm;65444;51.438;5.982;2023-06-26T01:07:27;34.05;31.85;37.49;;
67310;Laerm;65444;51.438;5.982;2023-06-26T01:07:38;34.82;31.13;50.84;;
67310;Laerm;65444;51.438;5.982;2023-06-26T01:07:49;34.15;31.53;43.11;;
67310;Laerm;65444;51.438;5.982;2023-06-26T01:08:00;33.26;30.88;41.31;;
67310;Laerm;65444;51.438;5.982;2023-06-26T01:08:12;33.36;31.03;36.20;;
67310;Laerm;65444;51.438;5.982;2023-06-26T01:08:23;33.07;30.99;35.20;;
67310;Laerm;65444;51.438;5.982;2023-06-26T01:08:34;33.26;31.06;42.70;;
67310;Laerm;65444;51.438;5.982;2023-06-26T01:08:44;34.25;31.57;41.94;;
67310;Laerm;65444;51.438;5.982;2023-06-26T01:08:57;35.70;31.72;41.36;;
67310;Laerm;65444;51.438;5.982;2023-06-26T01:09:08;33.51;31.48;37.21;;
67310;Laerm;65444;51.438;5.982;2023-06-26T01:09:18;34.37;31.60;42.74;;
67310;Laerm;65444;51.438;5.982;2023-06-26T01:09:29;33.89;31.70;46.70;;
67310;Laerm;65444;51.438;5.982;2023-06-26T01:09:42;33.30;31.22;35.43;;
67310;Laerm;65444;51.438;5.982;2023-06-26T01:09:52;33.15;31.21;36.29;;
67310;Laerm;65444;51.438;5.982;2023-06-26T01:10:03;34.03;32.00;36.39;;
67310;Laerm;65444;51.438;5.982;2023-06-26T01:10:14;33.95;32.18;36.63;;
67310;Laerm;65444;51.438;5.982;2023-06-26T01:10:25;35.05;31.44;44.07;;
67310;Laerm;65444;51.438;5.982;2023-06-26T01:10:37;33.43;30.73;39.17;;
67310;Laerm;65444;51.438;5.982;2023-06-26T01:10:48;33.60;31.17;36.04;;
67310;Laerm;65444;51.438;5.982;2023-06-26T01:10:59;34.51;31.22;37.16;;
67310;Laerm;65444;51.438;5.982;2023-06-26T01:11:10;35.91;32.76;39.11;;
67310;Laerm;65444;51.438;5.982;2023-06-26T01:11:21;34.35;31.63;39.50;;
67310;Laerm;65444;51.438;5.982;2023-06-26T01:11:32;34.92;32.78;38.08;;
67310;Laerm;65444;51.438;5.982;2023-06-26T01:11:42;46.63;32.93;61.17;;
67310;Laerm;65444;51.438;5.982;2023-06-26T01:11:53;38.39;32.78;54.38;;
67310;Laerm;65444;51.438;5.982;2023-06-26T01:12:03;34.72;32.06;37.03;;
67310;Laerm;65444;51.438;5.982;2023-06-26T01:12:23;33.83;31.10;43.85;;
67310;Laerm;65444;51.438;5.982;2023-06-26T01:12:34;34.24;31.28;38.98;;
67310;Laerm;65444;51.438;5.982;2023-06-26T01:12:44;34.74;31.90;43.42;;
67310;Laerm;65444;51.438;5.982;2023-06-26T01:12:55;34.87;32.10;37.75;;
67310;Laerm;65444;51.438;5.982;2023-06-26T01:13:05;35.92;33.19;37.95;;
67310;Laerm;65444;51.438;5.982;2023-06-26T01:13:16;34.03;31.71;44.51;;
67310;Laerm;65444;51.438;5.982;2023-06-26T01:13:27;35.38;32.13;39.95;;
67310;Laerm;65444;51.438;5.982;2023-06-26T01:13:38;36.30;32.14;40.66;;
67310;Laerm;65444;51.438;5.982;2023-06-26T01:13:49;34.09;32.17;36.60;;
67310;Laerm;65444;51.438;5.982;2023-06-26T01:14:01;33.33;31.15;35.90;;
67310;Laerm;65444;51.438;5.982;2023-06-26T01:14:12;33.85;31.34;36.04;;
67310;Laerm;65444;51.438;5.982;2023-06-26T01:14:23;33.72;31.00;35.68;;
67310;Laerm;65444;51.438;5.982;2023-06-26T01:14:34;33.54;31.55;35.53;;
67310;Laerm;65444;51.438;5.982;2023-06-26T01:14:45;33.18;31.30;35.30;;
67310;Laerm;65444;51.438;5.982;2023-06-26T01:14:55;33.92;31.14;38.79;;
67310;Laerm;65444;51.438;5.982;2023-06-26T01:15:06;33.59;31.61;37.69;;
67310;Laerm;65444;51.438;5.982;2023-06-26T01:15:16;33.70;31.80;36.19;;
67310;Laerm;65444;51.438;5.982;2023-06-26T01:15:27;35.35;32.42;39.14;;
67310;Laerm;65444;51.438;5.982;2023-06-26T01:15:51;34.48;31.43;38.65;;
67310;Laerm;65444;51.438;5.982;2023-06-26T01:16:01;34.56;31.50;39.16;;
67310;Laerm;65444;51.438;5.982;2023-06-26T01:16:14;36.05;31.66;43.96;;
67310;Laerm;65444;51.438;5.982;2023-06-26T01:16:25;35.25;31.59;40.13;;
67310;Laerm;65444;51.438;5.982;2023-06-26T01:17:16;33.75;31.08;36.46;;
67310;Laerm;65444;51.438;5.982;2023-06-26T01:17:27;34.06;31.97;36.33;;
67310;Laerm;65444;51.438;5.982;2023-06-26T01:17:41;34.15;31.88;36.34;;
67310;Laerm;65444;51.438;5.982;2023-06-26T01:17:55;34.74;32.58;37.69;;
67310;Laerm;65444;51.438;5.982;2023-06-26T01:18:12;34.96;33.08;37.14;;
67310;Laerm;65444;51.438;5.982;2023-06-26T01:18:28;35.33;32.73;38.48;;
67310;Laerm;65444;51.438;5.982;2023-06-26T01:18:47;34.62;32.06;37.96;;
67310;Laerm;65444;51.438;5.982;2023-06-26T01:18:59;34.52;31.43;38.47;;
67310;Laerm;65444;51.438;5.982;2023-06-26T01:19:10;34.42;31.73;36.97;;
67310;Laerm;65444;51.438;5.982;2023-06-26T01:19:26;34.76;32.10;37.50;;
67310;Laerm;65444;51.438;5.982;2023-06-26T01:19:47;35.51;32.50;41.27;;
67310;Laerm;65444;51.438;5.982;2023-06-26T01:20:00;35.14;32.31;38.43;;
67310;Laerm;65444;51.438;5.982;2023-06-26T01:20:11;35.11;32.62;39.20;;
67310;Laerm;65444;51.438;5.982;2023-06-26T01:20:26;34.49;32.71;36.49;;
67310;Laerm;65444;51.438;5.982;2023-06-26T01:20:38;34.23;32.19;36.85;;
67310;Laerm;65444;51.438;5.982;2023-06-26T01:20:52;34.33;31.83;38.09;;
67310;Laerm;65444;51.438;5.982;2023-06-26T01:21:03;36.10;32.33;40.67;;
67310;Laerm;65444;51.438;5.982;2023-06-26T01:21:15;35.90;32.75;40.34;;
67310;Laerm;65444;51.438;5.982;2023-06-26T01:21:25;34.15;32.28;36.16;;
67310;Laerm;65444;51.438;5.982;2023-06-26T01:22:02;33.56;31.44;35.44;;
67310;Laerm;65444;51.438;5.982;2023-06-26T01:22:39;33.33;31.11;36.13;;
67310;Laerm;65444;51.438;5.982;2023-06-26T01:23:45;34.94;31.89;42.07;;
67310;Laerm;65444;51.438;5.982;2023-06-26T01:24:16;34.49;31.45;38.52;;
67310;Laerm;65444;51.438;5.982;2023-06-26T01:24:38;35.49;31.44;40.58;;
67310;Laerm;65444;51.438;5.982;2023-06-26T01:25:33;34.08;32.13;36.02;;
67310;Laerm;65444;51.438;5.982;2023-06-26T01:26:23;39.83;32.39;49.02;;
67310;Laerm;65444;51.438;5.982;2023-06-26T01:26:35;43.62;34.37;51.24;;
67310;Laerm;65444;51.438;5.982;2023-06-26T01:26:48;39.84;35.04;47.41;;
67310;Laerm;65444;51.438;5.982;2023-06-26T01:27:00;36.69;34.10;39.96;;
67310;Laerm;65444;51.438;5.982;2023-06-26T01:27:12;34.76;32.34;37.02;;
67310;Laerm;65444;51.438;5.982;2023-06-26T01:27:26;37.81;33.04;43.52;;
67310;Laerm;65444;51.438;5.982;2023-06-26T01:28:09;36.37;32.45;46.98;;
67310;Laerm;65444;51.438;5.982;2023-06-26T01:28:20;35.26;31.89;39.19;;
67310;Laerm;65444;51.438;5.982;2023-06-26T01:28:30;33.79;31.40;36.90;;
67310;Laerm;65444;51.438;5.982;2023-06-26T01:28:42;34.31;32.22;36.28;;
67310;Laerm;65444;51.438;5.982;2023-06-26T01:28:53;35.46;32.07;40.21;;
67310;Laerm;65444;51.438;5.982;2023-06-26T01:29:06;35.78;31.97;40.77;;
67310;Laerm;65444;51.438;5.982;2023-06-26T01:30:03;32.85;30.40;35.95;;
67310;Laerm;65444;51.438;5.982;2023-06-26T01:30:14;33.31;31.11;40.43;;
67310;Laerm;65444;51.438;5.982;2023-06-26T01:30:25;33.90;31.21;36.80;;
67310;Laerm;65444;51.438;5.982;2023-06-26T01:30:38;33.48;30.97;37.31;;
67310;Laerm;65444;51.438;5.982;2023-06-26T01:31:57;33.83;30.39;46.85;;
67310;Laerm;65444;51.438;5.982;2023-06-26T01:32:08;33.15;31.54;34.78;;
67310;Laerm;65444;51.438;5.982;2023-06-26T01:32:19;32.70;30.73;34.68;;
67310;Laerm;65444;51.438;5.982;2023-06-26T01:32:30;34.34;32.38;37.52;;
67310;Laerm;65444;51.438;5.982;2023-06-26T01:32:41;33.96;32.22;37.69;;
67310;Laerm;65444;51.438;5.982;2023-06-26T01:32:52;32.97;31.59;34.65;;
67310;Laerm;65444;51.438;5.982;2023-06-26T01:33:02;33.45;31.24;36.40;;
67310;Laerm;65444;51.438;5.982;2023-06-26T01:33:13;33.01;31.17;38.06;;
67310;Laerm;65444;51.438;5.982;2023-06-26T01:33:24;33.63;31.51;39.68;;
67310;Laerm;65444;51.438;5.982;2023-06-26T01:33:35;33.29;31.34;35.66;;
67310;Laerm;65444;51.438;5.982;2023-06-26T01:34:29;33.95;31.13;40.02;;
67310;Laerm;65444;51.438;5.982;2023-06-26T01:34:40;35.90;33.51;39.98;;
67310;Laerm;65444;51.438;5.982;2023-06-26T01:34:51;36.31;33.32;39.73;;
67310;Laerm;65444;51.438;5.982;2023-06-26T01:35:02;34.18;31.63;37.77;;
67310;Laerm;65444;51.438;5.982;2023-06-26T01:35:13;34.15;31.86;37.03;;
67310;Laerm;65444;51.438;5.982;2023-06-26T01:35:25;34.77;32.09;37.96;;
67310;Laerm;65444;51.438;5.982;2023-06-26T01:35:37;34.59;32.22;37.04;;
67310;Laerm;65444;51.438;5.982;2023-06-26T01:35:48;34.67;32.45;37.83;;
67310;Laerm;65444;51.438;5.982;2023-06-26T01:35:59;35.09;32.83;36.89;;
67310;Laerm;65444;51.438;5.982;2023-06-26T01:37:09;37.82;30.46;50.24;;
67310;Laerm;65444;51.438;5.982;2023-06-26T01:37:19;33.88;31.54;37.71;;
67310;Laerm;65444;51.438;5.982;2023-06-26T01:37:29;33.36;30.67;35.93;;
67310;Laerm;65444;51.438;5.982;2023-06-26T01:37:40;31.65;30.23;33.39;;
67310;Laerm;65444;51.438;5.982;2023-06-26T01:37:50;32.09;30.32;34.69;;
67310;Laerm;65444;51.438;5.982;2023-06-26T01:41:40;33.59;31.43;38.17;;
67310;Laerm;65444;51.438;5.982;2023-06-26T01:41:51;34.11;31.29;36.75;;
67310;Laerm;65444;51.438;5.982;2023-06-26T01:42:02;34.70;32.44;38.32;;
67310;Laerm;65444;51.438;5.982;2023-06-26T01:42:12;33.43;31.42;35.51;;
67310;Laerm;65444;51.438;5.982;2023-06-26T01:42:23;34.57;32.55;37.52;;
67310;Laerm;65444;51.438;5.982;2023-06-26T01:42:34;34.32;31.51;37.59;;
67310;Laerm;65444;51.438;5.982;2023-06-26T01:42:46;34.36;31.97;37.11;;
67310;Laerm;65444;51.438;5.982;2023-06-26T01:42:57;36.63;31.86;49.86;;
67310;Laerm;65444;51.438;5.982;2023-06-26T01:43:09;32.84;30.46;37.86;;
67310;Laerm;65444;51.438;5.982;2023-06-26T01:43:27;33.45;31.11;39.87;;
67310;Laerm;65444;51.438;5.982;2023-06-26T01:44:44;32.62;30.46;34.53;;
67310;Laerm;65444;51.438;5.982;2023-06-26T01:44:55;32.23;30.07;34.57;;
67310;Laerm;65444;51.438;5.982;2023-06-26T01:45:23;34.10;30.95;38.45;;